sensor_id;sensor_type;location;lat;lon;timestamp;P1;durP1;ratioP1;P2;durP2;ratioP2
23573;SDS011;11965;53.640;10.050;2024-02-14T00:02:23;5.29;;;5.29;;
23573;SDS011;11965;53.640;10.050;2024-02-14T00:04:51;5.54;;;5.54;;
23573;SDS011;11965;53.640;10.050;2024-02-14T00:07:18;5.38;;;5.38;;
23573;SDS011;11965;53.640;10.050;2024-02-14T00:09:45;5.48;;;5.48;;
23573;SDS011;11965;53.640;10.050;2024-02-14T00:12:12;5.20;;;5.20;;
23573;SDS011;11965;53.640;10.050;2024-02-14T00:14:41;5.02;;;5.02;;
23573;SDS011;11965;53.640;10.050;2024-02-14T00:17:08;5.21;;;5.21;;
23573;SDS011;11965;53.640;10.050;2024-02-14T00:19:35;5.10;;;5.10;;
23573;SDS011;11965;53.640;10.050;2024-02-14T00:22:02;5.01;;;5.01;;
23573;SDS011;11965;53.640;10.050;2024-02-14T00:24:29;4.82;;;4.82;;
23573;SDS011;11965;53.640;10.050;2024-02-14T00:26:57;5.02;;;5.02;;
23573;SDS011;11965;53.640;10.050;2024-02-14T00:29:25;5.03;;;5.03;;
23573;SDS011;11965;53.640;10.050;2024-02-14T00:31:54;5.09;;;5.09;;
23573;SDS011;11965;53.640;10.050;2024-02-14T00:34:21;5.06;;;5.06;;
23573;SDS011;11965;53.640;10.050;2024-02-14T00:36:48;4.95;;;4.95;;
23573;SDS011;11965;53.640;10.050;2024-02-14T00:39:15;4.93;;;4.93;;
23573;SDS011;11965;53.640;10.050;2024-02-14T00:41:42;4.75;;;4.75;;
23573;SDS011;11965;53.640;10.050;2024-02-14T00:44:09;4.95;;;4.95;;
23573;SDS011;11965;53.640;10.050;2024-02-14T00:46:36;4.83;;;4.83;;
23573;SDS011;11965;53.640;10.050;2024-02-14T00:49:04;4.85;;;4.85;;
23573;SDS011;11965;53.640;10.050;2024-02-14T00:51:31;4.78;;;4.78;;
23573;SDS011;11965;53.640;10.050;2024-02-14T00:53:58;4.58;;;4.58;;
23573;SDS011;11965;53.640;10.050;2024-02-14T00:56:25;4.43;;;4.43;;
23573;SDS011;11965;53.640;10.050;2024-02-14T00:58:52;4.49;;;4.49;;
23573;SDS011;11965;53.640;10.050;2024-02-14T01:01:19;4.39;;;4.39;;
23573;SDS011;11965;53.640;10.050;2024-02-14T01:03:46;4.43;;;4.43;;
23573;SDS011;11965;53.640;10.050;2024-02-14T01:06:15;4.45;;;4.45;;
23573;SDS011;11965;53.640;10.050;2024-02-14T01:08:43;4.22;;;4.22;;
23573;SDS011;11965;53.640;10.050;2024-02-14T01:11:10;4.15;;;4.15;;
23573;SDS011;11965;53.640;10.050;2024-02-14T01:13:37;4.06;;;4.06;;
23573;SDS011;11965;53.640;10.050;2024-02-14T01:16:05;4.37;;;4.37;;
23573;SDS011;11965;53.640;10.050;2024-02-14T01:18:33;4.56;;;4.56;;
23573;SDS011;11965;53.640;10.050;2024-02-14T01:21:01;4.39;;;4.39;;
23573;SDS011;11965;53.640;10.050;2024-02-14T01:23:28;4.20;;;4.20;;
23573;SDS011;11965;53.640;10.050;2024-02-14T01:25:55;4.17;;;4.17;;
23573;SDS011;11965;53.640;10.050;2024-02-14T01:28:22;4.31;;;4.31;;
23573;SDS011;11965;53.640;10.050;2024-02-14T01:30:49;4.37;;;4.37;;
23573;SDS011;11965;53.640;10.050;2024-02-14T01:33:16;4.19;;;4.19;;
23573;SDS011;11965;53.640;10.050;2024-02-14T01:35:43;4.12;;;4.12;;
23573;SDS011;11965;53.640;10.050;2024-02-14T01:38:10;4.03;;;4.03;;
23573;SDS011;11965;53.640;10.050;2024-02-14T01:40:41;4.23;;;4.23;;
23573;SDS011;11965;53.640;10.050;2024-02-14T01:43:09;4.73;;;4.73;;
23573;SDS011;11965;53.640;10.050;2024-02-14T01:45:37;4.34;;;4.34;;
23573;SDS011;11965;53.640;10.050;2024-02-14T01:48:05;4.59;;;4.59;;
23573;SDS011;11965;53.640;10.050;2024-02-14T01:50:33;4.56;;;4.56;;
23573;SDS011;11965;53.640;10.050;2024-02-14T01:53:01;4.96;;;4.96;;
23573;SDS011;11965;53.640;10.050;2024-02-14T01:55:30;4.48;;;4.48;;
23573;SDS011;11965;53.640;10.050;2024-02-14T01:57:59;5.11;;;5.11;;
23573;SDS011;11965;53.640;10.050;2024-02-14T02:00:29;5.07;;;5.07;;
23573;SDS011;11965;53.640;10.050;2024-02-14T02:03:00;4.81;;;4.81;;
23573;SDS011;11965;53.640;10.050;2024-02-14T02:05:28;4.97;;;4.97;;
23573;SDS011;11965;53.640;10.050;2024-02-14T02:07:55;4.88;;;4.88;;
23573;SDS011;11965;53.640;10.050;2024-02-14T02:10:22;5.05;;;5.05;;
23573;SDS011;11965;53.640;10.050;2024-02-14T02:12:51;4.97;;;4.97;;
23573;SDS011;11965;53.640;10.050;2024-02-14T02:15:25;5.39;;;5.39;;
23573;SDS011;11965;53.640;10.050;2024-02-14T02:17:53;5.42;;;5.42;;
23573;SDS011;11965;53.640;10.050;2024-02-14T02:20:21;5.21;;;5.21;;
23573;SDS011;11965;53.640;10.050;2024-02-14T02:22:49;5.31;;;5.31;;
23573;SDS011;11965;53.640;10.050;2024-02-14T02:25:16;5.34;;;5.34;;
23573;SDS011;11965;53.640;10.050;2024-02-14T02:27:48;5.42;;;5.42;;
23573;SDS011;11965;53.640;10.050;2024-02-14T02:30:15;5.50;;;5.50;;
23573;SDS011;11965;53.640;10.050;2024-02-14T02:32:42;5.83;;;5.83;;
23573;SDS011;11965;53.640;10.050;2024-02-14T02:35:09;5.73;;;5.73;;
23573;SDS011;11965;53.640;10.050;2024-02-14T02:37:36;5.84;;;5.84;;
23573;SDS011;11965;53.640;10.050;2024-02-14T02:40:05;5.55;;;5.55;;
23573;SDS011;11965;53.640;10.050;2024-02-14T02:42:35;5.87;;;5.87;;
23573;SDS011;11965;53.640;10.050;2024-02-14T02:45:02;5.89;;;5.89;;
23573;SDS011;11965;53.640;10.050;2024-02-14T02:47:30;5.68;;;5.68;;
23573;SDS011;11965;53.640;10.050;2024-02-14T02:49:58;5.81;;;5.81;;
23573;SDS011;11965;53.640;10.050;2024-02-14T02:52:27;5.73;;;5.73;;
23573;SDS011;11965;53.640;10.050;2024-02-14T02:54:54;5.38;;;5.38;;
23573;SDS011;11965;53.640;10.050;2024-02-14T02:57:23;6.06;;;6.06;;
23573;SDS011;11965;53.640;10.050;2024-02-14T02:59:52;5.68;;;5.68;;
23573;SDS011;11965;53.640;10.050;2024-02-14T03:02:19;5.68;;;5.68;;
23573;SDS011;11965;53.640;10.050;2024-02-14T03:04:48;5.74;;;5.74;;
23573;SDS011;11965;53.640;10.050;2024-02-14T03:07:16;5.63;;;5.63;;
23573;SDS011;11965;53.640;10.050;2024-02-14T03:09:43;5.94;;;5.94;;
23573;SDS011;11965;53.640;10.050;2024-02-14T03:12:10;5.83;;;5.83;;
23573;SDS011;11965;53.640;10.050;2024-02-14T03:14:43;5.63;;;5.63;;
23573;SDS011;11965;53.640;10.050;2024-02-14T03:17:10;5.93;;;5.93;;
23573;SDS011;11965;53.640;10.050;2024-02-14T03:19:37;5.81;;;5.81;;
23573;SDS011;11965;53.640;10.050;2024-02-14T03:22:06;5.58;;;5.58;;
23573;SDS011;11965;53.640;10.050;2024-02-14T03:24:34;5.61;;;5.61;;
23573;SDS011;11965;53.640;10.050;2024-02-14T03:27:02;6.11;;;6.11;;
23573;SDS011;11965;53.640;10.050;2024-02-14T03:29:31;6.10;;;6.10;;
23573;SDS011;11965;53.640;10.050;2024-02-14T03:32:00;6.32;;;6.32;;
23573;SDS011;11965;53.640;10.050;2024-02-14T03:34:29;6.01;;;6.01;;
23573;SDS011;11965;53.640;10.050;2024-02-14T03:36:59;5.88;;;5.88;;
23573;SDS011;11965;53.640;10.050;2024-02-14T03:39:28;6.36;;;6.36;;
23573;SDS011;11965;53.640;10.050;2024-02-14T03:41:55;5.49;;;5.49;;
23573;SDS011;11965;53.640;10.050;2024-02-14T03:44:22;5.59;;;5.59;;
23573;SDS011;11965;53.640;10.050;2024-02-14T03:46:49;5.60;;;5.60;;
23573;SDS011;11965;53.640;10.050;2024-02-14T03:49:17;5.46;;;5.46;;
23573;SDS011;11965;53.640;10.050;2024-02-14T03:51:45;5.82;;;5.82;;
23573;SDS011;11965;53.640;10.050;2024-02-14T03:54:12;5.77;;;5.77;;
23573;SDS011;11965;53.640;10.050;2024-02-14T03:56:39;5.80;;;5.80;;
23573;SDS011;11965;53.640;10.050;2024-02-14T03:59:06;6.14;;;6.14;;
23573;SDS011;11965;53.640;10.050;2024-02-14T04:01:33;5.93;;;5.93;;
23573;SDS011;11965;53.640;10.050;2024-02-14T04:04:00;5.74;;;5.74;;
23573;SDS011;11965;53.640;10.050;2024-02-14T04:06:29;5.90;;;5.90;;
23573;SDS011;11965;53.640;10.050;2024-02-14T04:08:57;6.00;;;6.00;;
23573;SDS011;11965;53.640;10.050;2024-02-14T04:11:25;5.99;;;5.99;;
23573;SDS011;11965;53.640;10.050;2024-02-14T04:13:52;5.96;;;5.96;;
23573;SDS011;11965;53.640;10.050;2024-02-14T04:16:19;5.76;;;5.76;;
23573;SDS011;11965;53.640;10.050;2024-02-14T04:18:47;5.63;;;5.63;;
23573;SDS011;11965;53.640;10.050;2024-02-14T04:21:14;6.06;;;6.06;;
23573;SDS011;11965;53.640;10.050;2024-02-14T04:23:42;6.14;;;6.14;;
23573;SDS011;11965;53.640;10.050;2024-02-14T04:26:09;6.44;;;6.44;;
23573;SDS011;11965;53.640;10.050;2024-02-14T04:28:38;5.88;;;5.88;;
23573;SDS011;11965;53.640;10.050;2024-02-14T04:31:06;5.76;;;5.76;;
23573;SDS011;11965;53.640;10.050;2024-02-14T04:33:35;6.07;;;6.07;;
23573;SDS011;11965;53.640;10.050;2024-02-14T04:36:02;6.09;;;6.09;;
23573;SDS011;11965;53.640;10.050;2024-02-14T04:38:30;6.00;;;6.00;;
23573;SDS011;11965;53.640;10.050;2024-02-14T04:40:59;6.34;;;6.34;;
23573;SDS011;11965;53.640;10.050;2024-02-14T04:43:26;6.22;;;6.22;;
23573;SDS011;11965;53.640;10.050;2024-02-14T04:45:53;6.46;;;6.46;;
23573;SDS011;11965;53.640;10.050;2024-02-14T04:48:20;5.90;;;5.90;;
23573;SDS011;11965;53.640;10.050;2024-02-14T04:50:47;5.98;;;5.98;;
23573;SDS011;11965;53.640;10.050;2024-02-14T04:53:14;6.04;;;6.04;;
23573;SDS011;11965;53.640;10.050;2024-02-14T04:55:42;5.99;;;5.99;;
23573;SDS011;11965;53.640;10.050;2024-02-14T04:58:11;6.25;;;6.25;;
23573;SDS011;11965;53.640;10.050;2024-02-14T05:00:38;6.27;;;6.27;;
23573;SDS011;11965;53.640;10.050;2024-02-14T05:03:05;6.34;;;6.34;;
23573;SDS011;11965;53.640;10.050;2024-02-14T05:05:32;6.16;;;6.16;;
23573;SDS011;11965;53.640;10.050;2024-02-14T05:07:59;6.05;;;6.05;;
23573;SDS011;11965;53.640;10.050;2024-02-14T05:10:27;6.60;;;6.60;;
23573;SDS011;11965;53.640;10.050;2024-02-14T05:12:54;6.57;;;6.57;;
23573;SDS011;11965;53.640;10.050;2024-02-14T05:15:23;6.25;;;6.25;;
23573;SDS011;11965;53.640;10.050;2024-02-14T05:17:50;6.52;;;6.52;;
23573;SDS011;11965;53.640;10.050;2024-02-14T05:20:18;6.61;;;6.61;;
23573;SDS011;11965;53.640;10.050;2024-02-14T05:22:45;6.63;;;6.63;;
23573;SDS011;11965;53.640;10.050;2024-02-14T05:25:12;6.60;;;6.60;;
23573;SDS011;11965;53.640;10.050;2024-02-14T05:27:39;6.58;;;6.58;;
23573;SDS011;11965;53.640;10.050;2024-02-14T05:30:06;6.75;;;6.75;;
23573;SDS011;11965;53.640;10.050;2024-02-14T05:32:36;6.96;;;6.96;;
23573;SDS011;11965;53.640;10.050;2024-02-14T05:35:03;7.21;;;7.21;;
23573;SDS011;11965;53.640;10.050;2024-02-14T05:37:31;7.63;;;7.63;;
23573;SDS011;11965;53.640;10.050;2024-02-14T05:39:58;7.77;;;7.77;;
23573;SDS011;11965;53.640;10.050;2024-02-14T05:42:26;7.04;;;7.04;;
23573;SDS011;11965;53.640;10.050;2024-02-14T05:44:52;6.82;;;6.82;;
23573;SDS011;11965;53.640;10.050;2024-02-14T05:47:19;6.98;;;6.98;;
23573;SDS011;11965;53.640;10.050;2024-02-14T05:49:48;7.23;;;7.23;;
23573;SDS011;11965;53.640;10.050;2024-02-14T05:52:15;7.93;;;7.93;;
23573;SDS011;11965;53.640;10.050;2024-02-14T05:54:43;7.52;;;7.52;;
23573;SDS011;11965;53.640;10.050;2024-02-14T05:57:10;7.76;;;7.76;;
23573;SDS011;11965;53.640;10.050;2024-02-14T05:59:37;7.76;;;7.76;;
23573;SDS011;11965;53.640;10.050;2024-02-14T06:02:05;7.78;;;7.78;;
23573;SDS011;11965;53.640;10.050;2024-02-14T06:04:33;7.83;;;7.83;;
23573;SDS011;11965;53.640;10.050;2024-02-14T06:07:02;7.72;;;7.72;;
23573;SDS011;11965;53.640;10.050;2024-02-14T06:09:32;7.42;;;7.42;;
23573;SDS011;11965;53.640;10.050;2024-02-14T06:11:59;7.20;;;7.20;;
23573;SDS011;11965;53.640;10.050;2024-02-14T06:14:26;7.28;;;7.28;;
23573;SDS011;11965;53.640;10.050;2024-02-14T06:16:54;7.14;;;7.14;;
23573;SDS011;11965;53.640;10.050;2024-02-14T06:19:21;7.61;;;7.61;;
23573;SDS011;11965;53.640;10.050;2024-02-14T06:21:47;7.37;;;7.37;;
23573;SDS011;11965;53.640;10.050;2024-02-14T06:24:16;7.55;;;7.55;;
23573;SDS011;11965;53.640;10.050;2024-02-14T06:26:44;7.30;;;7.30;;
23573;SDS011;11965;53.640;10.050;2024-02-14T06:29:11;7.56;;;7.56;;
23573;SDS011;11965;53.640;10.050;2024-02-14T06:31:38;7.91;;;7.91;;
23573;SDS011;11965;53.640;10.050;2024-02-14T06:34:06;7.88;;;7.88;;
23573;SDS011;11965;53.640;10.050;2024-02-14T06:36:33;8.17;;;8.17;;
23573;SDS011;11965;53.640;10.050;2024-02-14T06:39:00;7.69;;;7.69;;
23573;SDS011;11965;53.640;10.050;2024-02-14T06:41:29;7.55;;;7.55;;
23573;SDS011;11965;53.640;10.050;2024-02-14T06:43:56;7.61;;;7.61;;
23573;SDS011;11965;53.640;10.050;2024-02-14T06:46:23;7.52;;;7.52;;
23573;SDS011;11965;53.640;10.050;2024-02-14T06:48:50;7.54;;;7.54;;
23573;SDS011;11965;53.640;10.050;2024-02-14T06:51:17;7.34;;;7.34;;
23573;SDS011;11965;53.640;10.050;2024-02-14T06:53:45;7.30;;;7.30;;
23573;SDS011;11965;53.640;10.050;2024-02-14T06:56:12;7.76;;;7.76;;
23573;SDS011;11965;53.640;10.050;2024-02-14T06:58:41;7.84;;;7.84;;
23573;SDS011;11965;53.640;10.050;2024-02-14T07:01:07;7.45;;;7.45;;
23573;SDS011;11965;53.640;10.050;2024-02-14T07:03:37;7.29;;;7.29;;
23573;SDS011;11965;53.640;10.050;2024-02-14T07:06:05;7.21;;;7.21;;
23573;SDS011;11965;53.640;10.050;2024-02-14T07:08:33;7.54;;;7.54;;
23573;SDS011;11965;53.640;10.050;2024-02-14T07:11:00;7.70;;;7.70;;
23573;SDS011;11965;53.640;10.050;2024-02-14T07:13:27;7.07;;;7.07;;
23573;SDS011;11965;53.640;10.050;2024-02-14T07:15:55;7.87;;;7.87;;
23573;SDS011;11965;53.640;10.050;2024-02-14T07:18:22;7.35;;;7.35;;
23573;SDS011;11965;53.640;10.050;2024-02-14T07:20:49;7.59;;;7.59;;
23573;SDS011;11965;53.640;10.050;2024-02-14T07:23:16;7.33;;;7.33;;
23573;SDS011;11965;53.640;10.050;2024-02-14T07:25:45;7.37;;;7.37;;
23573;SDS011;11965;53.640;10.050;2024-02-14T07:28:12;7.38;;;7.38;;
23573;SDS011;11965;53.640;10.050;2024-02-14T07:30:39;7.33;;;7.33;;
23573;SDS011;11965;53.640;10.050;2024-02-14T07:33:07;8.16;;;8.16;;
23573;SDS011;11965;53.640;10.050;2024-02-14T07:35:34;7.84;;;7.84;;
23573;SDS011;11965;53.640;10.050;2024-02-14T07:38:02;7.70;;;7.70;;
23573;SDS011;11965;53.640;10.050;2024-02-14T07:40:30;8.35;;;8.35;;
23573;SDS011;11965;53.640;10.050;2024-02-14T07:42:57;8.55;;;8.55;;
23573;SDS011;11965;53.640;10.050;2024-02-14T07:45:24;8.26;;;8.26;;
23573;SDS011;11965;53.640;10.050;2024-02-14T07:47:51;8.86;;;8.86;;
23573;SDS011;11965;53.640;10.050;2024-02-14T07:50:20;8.63;;;8.63;;
23573;SDS011;11965;53.640;10.050;2024-02-14T07:52:46;8.72;;;8.72;;
23573;SDS011;11965;53.640;10.050;2024-02-14T07:55:13;8.78;;;8.78;;
23573;SDS011;11965;53.640;10.050;2024-02-14T07:57:41;8.74;;;8.74;;
23573;SDS011;11965;53.640;10.050;2024-02-14T08:00:09;8.60;;;8.60;;
23573;SDS011;11965;53.640;10.050;2024-02-14T08:02:37;9.48;;;9.48;;
23573;SDS011;11965;53.640;10.050;2024-02-14T08:05:04;9.03;;;9.03;;
23573;SDS011;11965;53.640;10.050;2024-02-14T08:07:33;8.75;;;8.75;;
23573;SDS011;11965;53.640;10.050;2024-02-14T08:09:59;8.24;;;8.24;;
23573;SDS011;11965;53.640;10.050;2024-02-14T08:12:26;8.15;;;8.15;;
23573;SDS011;11965;53.640;10.050;2024-02-14T08:14:53;8.50;;;8.50;;
23573;SDS011;11965;53.640;10.050;2024-02-14T08:17:20;8.55;;;8.55;;
23573;SDS011;11965;53.640;10.050;2024-02-14T08:19:47;8.44;;;8.44;;
23573;SDS011;11965;53.640;10.050;2024-02-14T08:22:14;8.25;;;8.25;;
23573;SDS011;11965;53.640;10.050;2024-02-14T08:24:42;8.14;;;8.14;;
23573;SDS011;11965;53.640;10.050;2024-02-14T08:27:09;8.62;;;8.62;;
23573;SDS011;11965;53.640;10.050;2024-02-14T08:29:36;8.77;;;8.77;;
23573;SDS011;11965;53.640;10.050;2024-02-14T08:32:03;8.74;;;8.74;;
23573;SDS011;11965;53.640;10.050;2024-02-14T08:34:30;8.83;;;8.83;;
23573;SDS011;11965;53.640;10.050;2024-02-14T08:36:57;8.56;;;8.56;;
23573;SDS011;11965;53.640;10.050;2024-02-14T08:39:24;9.07;;;9.07;;
23573;SDS011;11965;53.640;10.050;2024-02-14T08:41:53;9.30;;;9.30;;
23573;SDS011;11965;53.640;10.050;2024-02-14T08:44:20;8.86;;;8.86;;
23573;SDS011;11965;53.640;10.050;2024-02-14T08:46:47;9.03;;;9.03;;
23573;SDS011;11965;53.640;10.050;2024-02-14T08:49:14;8.89;;;8.89;;
23573;SDS011;11965;53.640;10.050;2024-02-14T08:51:41;8.53;;;8.53;;
23573;SDS011;11965;53.640;10.050;2024-02-14T08:54:09;8.61;;;8.61;;
23573;SDS011;11965;53.640;10.050;2024-02-14T08:56:36;8.43;;;8.43;;
23573;SDS011;11965;53.640;10.050;2024-02-14T08:59:04;8.66;;;8.66;;
23573;SDS011;11965;53.640;10.050;2024-02-14T09:01:32;8.61;;;8.61;;
23573;SDS011;11965;53.640;10.050;2024-02-14T09:03:59;8.45;;;8.45;;
23573;SDS011;11965;53.640;10.050;2024-02-14T09:06:26;7.94;;;7.94;;
23573;SDS011;11965;53.640;10.050;2024-02-14T09:08:53;7.63;;;7.63;;
23573;SDS011;11965;53.640;10.050;2024-02-14T09:11:20;8.14;;;8.14;;
23573;SDS011;11965;53.640;10.050;2024-02-14T09:13:48;7.87;;;7.87;;
23573;SDS011;11965;53.640;10.050;2024-02-14T09:16:20;7.84;;;7.84;;
23573;SDS011;11965;53.640;10.050;2024-02-14T09:18:47;7.53;;;7.53;;
23573;SDS011;11965;53.640;10.050;2024-02-14T09:21:14;7.46;;;7.46;;
23573;SDS011;11965;53.640;10.050;2024-02-14T09:23:42;7.56;;;7.56;;
23573;SDS011;11965;53.640;10.050;2024-02-14T09:26:10;6.98;;;6.98;;
23573;SDS011;11965;53.640;10.050;2024-02-14T09:28:39;7.15;;;7.15;;
23573;SDS011;11965;53.640;10.050;2024-02-14T09:31:06;7.18;;;7.18;;
23573;SDS011;11965;53.640;10.050;2024-02-14T09:33:37;7.22;;;7.22;;
23573;SDS011;11965;53.640;10.050;2024-02-14T09:36:04;7.02;;;7.02;;
23573;SDS011;11965;53.640;10.050;2024-02-14T09:38:31;7.48;;;7.48;;
23573;SDS011;11965;53.640;10.050;2024-02-14T09:41:01;7.14;;;7.14;;
23573;SDS011;11965;53.640;10.050;2024-02-14T09:43:38;7.26;;;7.26;;
23573;SDS011;11965;53.640;10.050;2024-02-14T09:46:07;7.07;;;7.07;;
23573;SDS011;11965;53.640;10.050;2024-02-14T09:48:34;7.10;;;7.10;;
23573;SDS011;11965;53.640;10.050;2024-02-14T09:51:04;6.95;;;6.95;;
23573;SDS011;11965;53.640;10.050;2024-02-14T09:53:33;7.15;;;7.15;;
23573;SDS011;11965;53.640;10.050;2024-02-14T09:56:01;6.99;;;6.99;;
23573;SDS011;11965;53.640;10.050;2024-02-14T09:58:29;6.82;;;6.82;;
23573;SDS011;11965;53.640;10.050;2024-02-14T10:00:58;7.03;;;7.03;;
23573;SDS011;11965;53.640;10.050;2024-02-14T10:03:25;6.99;;;6.99;;
23573;SDS011;11965;53.640;10.050;2024-02-14T10:05:52;7.38;;;7.38;;
23573;SDS011;11965;53.640;10.050;2024-02-14T10:08:20;7.13;;;7.13;;
23573;SDS011;11965;53.640;10.050;2024-02-14T10:10:48;6.76;;;6.76;;
23573;SDS011;11965;53.640;10.050;2024-02-14T10:13:16;6.70;;;6.70;;
23573;SDS011;11965;53.640;10.050;2024-02-14T10:15:43;6.97;;;6.97;;
23573;SDS011;11965;53.640;10.050;2024-02-14T10:18:09;6.71;;;6.71;;
23573;SDS011;11965;53.640;10.050;2024-02-14T10:20:37;6.72;;;6.72;;
23573;SDS011;11965;53.640;10.050;2024-02-14T10:23:10;6.64;;;6.64;;
23573;SDS011;11965;53.640;10.050;2024-02-14T10:25:39;6.62;;;6.62;;
23573;SDS011;11965;53.640;10.050;2024-02-14T10:28:08;6.43;;;6.43;;
23573;SDS011;11965;53.640;10.050;2024-02-14T10:30:35;6.40;;;6.40;;
23573;SDS011;11965;53.640;10.050;2024-02-14T10:33:04;6.37;;;6.37;;
23573;SDS011;11965;53.640;10.050;2024-02-14T10:35:32;5.88;;;5.88;;
23573;SDS011;11965;53.640;10.050;2024-02-14T10:38:02;4.89;;;4.89;;
23573;SDS011;11965;53.640;10.050;2024-02-14T10:40:31;4.91;;;4.91;;
23573;SDS011;11965;53.640;10.050;2024-02-14T10:43:00;4.69;;;4.69;;
23573;SDS011;11965;53.640;10.050;2024-02-14T10:45:27;4.34;;;4.34;;
23573;SDS011;11965;53.640;10.050;2024-02-14T10:47:54;4.18;;;4.18;;
23573;SDS011;11965;53.640;10.050;2024-02-14T10:50:24;3.87;;;3.87;;
23573;SDS011;11965;53.640;10.050;2024-02-14T10:52:57;4.10;;;4.10;;
23573;SDS011;11965;53.640;10.050;2024-02-14T10:55:27;4.20;;;4.20;;
23573;SDS011;11965;53.640;10.050;2024-02-14T10:57:57;4.05;;;4.05;;
23573;SDS011;11965;53.640;10.050;2024-02-14T11:00:25;4.13;;;4.13;;
23573;SDS011;11965;53.640;10.050;2024-02-14T11:02:53;3.92;;;3.92;;
23573;SDS011;11965;53.640;10.050;2024-02-14T11:05:22;3.78;;;3.78;;
23573;SDS011;11965;53.640;10.050;2024-02-14T11:07:49;3.56;;;3.56;;
23573;SDS011;11965;53.640;10.050;2024-02-14T11:10:18;3.67;;;3.67;;
23573;SDS011;11965;53.640;10.050;2024-02-14T11:12:47;3.56;;;3.56;;
23573;SDS011;11965;53.640;10.050;2024-02-14T11:15:17;3.72;;;3.72;;
23573;SDS011;11965;53.640;10.050;2024-02-14T11:17:46;3.87;;;3.87;;
23573;SDS011;11965;53.640;10.050;2024-02-14T11:20:15;3.64;;;3.64;;
23573;SDS011;11965;53.640;10.050;2024-02-14T11:22:55;3.33;;;3.33;;
23573;SDS011;11965;53.640;10.050;2024-02-14T11:25:28;3.25;;;3.25;;
23573;SDS011;11965;53.640;10.050;2024-02-14T11:27:57;3.29;;;3.29;;
23573;SDS011;11965;53.640;10.050;2024-02-14T11:30:31;3.38;;;3.38;;
23573;SDS011;11965;53.640;10.050;2024-02-14T11:33:23;3.22;;;3.22;;
23573;SDS011;11965;53.640;10.050;2024-02-14T11:35:51;3.40;;;3.40;;
23573;SDS011;11965;53.640;10.050;2024-02-14T11:38:19;4.19;;;4.19;;
23573;SDS011;11965;53.640;10.050;2024-02-14T11:40:47;3.92;;;3.92;;
23573;SDS011;11965;53.640;10.050;2024-02-14T11:43:14;4.18;;;4.18;;
23573;SDS011;11965;53.640;10.050;2024-02-14T11:45:43;4.09;;;4.09;;
23573;SDS011;11965;53.640;10.050;2024-02-14T11:48:11;4.26;;;4.26;;
23573;SDS011;11965;53.640;10.050;2024-02-14T11:50:41;4.61;;;4.61;;
23573;SDS011;11965;53.640;10.050;2024-02-14T11:53:10;4.66;;;4.66;;
23573;SDS011;11965;53.640;10.050;2024-02-14T11:55:39;4.36;;;4.36;;
23573;SDS011;11965;53.640;10.050;2024-02-14T11:58:07;4.38;;;4.38;;
23573;SDS011;11965;53.640;10.050;2024-02-14T12:00:36;4.14;;;4.14;;
23573;SDS011;11965;53.640;10.050;2024-02-14T12:03:06;4.02;;;4.02;;
23573;SDS011;11965;53.640;10.050;2024-02-14T12:05:34;4.18;;;4.18;;
23573;SDS011;11965;53.640;10.050;2024-02-14T12:08:06;3.89;;;3.89;;
23573;SDS011;11965;53.640;10.050;2024-02-14T12:10:35;4.34;;;4.34;;
23573;SDS011;11965;53.640;10.050;2024-02-14T12:13:06;4.05;;;4.05;;
23573;SDS011;11965;53.640;10.050;2024-02-14T12:15:38;4.59;;;4.59;;
23573;SDS011;11965;53.640;10.050;2024-02-14T12:18:05;4.66;;;4.66;;
23573;SDS011;11965;53.640;10.050;2024-02-14T12:20:34;4.35;;;4.35;;
23573;SDS011;11965;53.640;10.050;2024-02-14T12:23:02;4.26;;;4.26;;
23573;SDS011;11965;53.640;10.050;2024-02-14T12:25:30;4.33;;;4.33;;
23573;SDS011;11965;53.640;10.050;2024-02-14T12:27:59;4.57;;;4.57;;
23573;SDS011;11965;53.640;10.050;2024-02-14T12:30:33;4.31;;;4.31;;
23573;SDS011;11965;53.640;10.050;2024-02-14T12:33:10;4.12;;;4.12;;
23573;SDS011;11965;53.640;10.050;2024-02-14T12:35:40;4.49;;;4.49;;
23573;SDS011;11965;53.640;10.050;2024-02-14T12:38:09;4.29;;;4.29;;
23573;SDS011;11965;53.640;10.050;2024-02-14T12:40:38;4.38;;;4.38;;
23573;SDS011;11965;53.640;10.050;2024-02-14T12:43:07;4.33;;;4.33;;
23573;SDS011;11965;53.640;10.050;2024-02-14T12:45:35;4.25;;;4.25;;
23573;SDS011;11965;53.640;10.050;2024-02-14T12:48:03;4.14;;;4.14;;
23573;SDS011;11965;53.640;10.050;2024-02-14T12:50:30;4.29;;;4.29;;
23573;SDS011;11965;53.640;10.050;2024-02-14T12:52:58;4.13;;;4.13;;
23573;SDS011;11965;53.640;10.050;2024-02-14T12:55:25;3.71;;;3.71;;
23573;SDS011;11965;53.640;10.050;2024-02-14T12:57:55;4.12;;;4.12;;
23573;SDS011;11965;53.640;10.050;2024-02-14T13:00:22;4.38;;;4.38;;
23573;SDS011;11965;53.640;10.050;2024-02-14T13:02:49;4.26;;;4.26;;
23573;SDS011;11965;53.640;10.050;2024-02-14T13:05:17;4.39;;;4.39;;
23573;SDS011;11965;53.640;10.050;2024-02-14T13:07:44;4.55;;;4.55;;
23573;SDS011;11965;53.640;10.050;2024-02-14T13:10:12;4.24;;;4.24;;
23573;SDS011;11965;53.640;10.050;2024-02-14T13:12:39;4.28;;;4.28;;
23573;SDS011;11965;53.640;10.050;2024-02-14T13:15:08;4.31;;;4.31;;
23573;SDS011;11965;53.640;10.050;2024-02-14T13:17:35;4.02;;;4.02;;
23573;SDS011;11965;53.640;10.050;2024-02-14T13:20:02;4.30;;;4.30;;
23573;SDS011;11965;53.640;10.050;2024-02-14T13:22:30;4.41;;;4.41;;
23573;SDS011;11965;53.640;10.050;2024-02-14T13:24:58;4.54;;;4.54;;
23573;SDS011;11965;53.640;10.050;2024-02-14T13:27:25;4.85;;;4.85;;
23573;SDS011;11965;53.640;10.050;2024-02-14T13:29:52;5.17;;;5.17;;
23573;SDS011;11965;53.640;10.050;2024-02-14T13:32:21;5.34;;;5.34;;
23573;SDS011;11965;53.640;10.050;2024-02-14T13:34:48;5.90;;;5.90;;
23573;SDS011;11965;53.640;10.050;2024-02-14T13:37:15;5.85;;;5.85;;
23573;SDS011;11965;53.640;10.050;2024-02-14T13:39:42;6.52;;;6.52;;
23573;SDS011;11965;53.640;10.050;2024-02-14T13:42:09;6.68;;;6.68;;
23573;SDS011;11965;53.640;10.050;2024-02-14T13:44:36;6.74;;;6.74;;
23573;SDS011;11965;53.640;10.050;2024-02-14T13:47:03;7.37;;;7.37;;
23573;SDS011;11965;53.640;10.050;2024-02-14T13:49:31;7.15;;;7.15;;
23573;SDS011;11965;53.640;10.050;2024-02-14T13:51:58;7.22;;;7.22;;
23573;SDS011;11965;53.640;10.050;2024-02-14T13:54:25;7.34;;;7.34;;
23573;SDS011;11965;53.640;10.050;2024-02-14T13:56:52;7.40;;;7.40;;
23573;SDS011;11965;53.640;10.050;2024-02-14T13:59:20;7.35;;;7.35;;
23573;SDS011;11965;53.640;10.050;2024-02-14T14:01:47;7.58;;;7.58;;
23573;SDS011;11965;53.640;10.050;2024-02-14T14:04:14;9.20;;;9.20;;
23573;SDS011;11965;53.640;10.050;2024-02-14T14:06:43;8.73;;;8.73;;
23573;SDS011;11965;53.640;10.050;2024-02-14T14:09:12;13.01;;;13.01;;
23573;SDS011;11965;53.640;10.050;2024-02-14T14:11:39;13.64;;;13.64;;
23573;SDS011;11965;53.640;10.050;2024-02-14T14:14:06;11.90;;;11.90;;
23573;SDS011;11965;53.640;10.050;2024-02-14T14:16:36;19.24;;;19.24;;
23573;SDS011;11965;53.640;10.050;2024-02-14T14:19:03;14.41;;;14.41;;
23573;SDS011;11965;53.640;10.050;2024-02-14T14:21:30;10.83;;;10.83;;
23573;SDS011;11965;53.640;10.050;2024-02-14T14:23:59;9.93;;;9.93;;
23573;SDS011;11965;53.640;10.050;2024-02-14T14:26:26;8.56;;;8.56;;
23573;SDS011;11965;53.640;10.050;2024-02-14T14:28:52;9.91;;;9.91;;
23573;SDS011;11965;53.640;10.050;2024-02-14T14:31:20;8.17;;;8.17;;
23573;SDS011;11965;53.640;10.050;2024-02-14T14:33:47;8.39;;;8.39;;
23573;SDS011;11965;53.640;10.050;2024-02-14T14:36:14;7.74;;;7.74;;
23573;SDS011;11965;53.640;10.050;2024-02-14T14:38:41;7.52;;;7.52;;